sensor_id;sensor_type;location;lat;lon;timestamp;temperature;humidity
52979;DHT22;63430;53.186;6.598;2023-03-11T00:00:46;1.20;99.90
52979;DHT22;63430;53.186;6.598;2023-03-11T00:02:51;1.20;99.90
52979;DHT22;63430;53.186;6.598;2023-03-11T00:04:54;1.20;99.90
52979;DHT22;63430;53.186;6.598;2023-03-11T00:06:59;1.20;99.90
52979;DHT22;63430;53.186;6.598;2023-03-11T00:09:01;1.20;99.90
52979;DHT22;63430;53.186;6.598;2023-03-11T00:11:04;1.20;99.90
52979;DHT22;63430;53.186;6.598;2023-03-11T00:13:09;1.20;99.90
52979;DHT22;63430;53.186;6.598;2023-03-11T00:15:12;1.20;99.90
52979;DHT22;63430;53.186;6.598;2023-03-11T00:17:15;1.20;99.90
52979;DHT22;63430;53.186;6.598;2023-03-11T00:19:18;1.20;99.90
52979;DHT22;63430;53.186;6.598;2023-03-11T00:21:21;1.20;99.90
52979;DHT22;63430;53.186;6.598;2023-03-11T00:23:26;1.20;99.90
52979;DHT22;63430;53.186;6.598;2023-03-11T00:25:30;1.20;99.90
52979;DHT22;63430;53.186;6.598;2023-03-11T00:27:33;1.20;99.90
52979;DHT22;63430;53.186;6.598;2023-03-11T00:29:38;1.20;99.90
52979;DHT22;63430;53.186;6.598;2023-03-11T00:31:42;1.10;99.90
52979;DHT22;63430;53.186;6.598;2023-03-11T00:33:44;1.10;99.90
52979;DHT22;63430;53.186;6.598;2023-03-11T00:35:48;1.10;99.90
52979;DHT22;63430;53.186;6.598;2023-03-11T00:37:53;1.20;99.90
52979;DHT22;63430;53.186;6.598;2023-03-11T00:39:58;2.10;99.90
52979;DHT22;63430;53.186;6.598;2023-03-11T00:42:01;1.10;99.90
52979;DHT22;63430;53.186;6.598;2023-03-11T00:44:04;1.10;99.90
52979;DHT22;63430;53.186;6.598;2023-03-11T00:46:08;1.10;99.90
52979;DHT22;63430;53.186;6.598;2023-03-11T00:48:11;1.10;99.90
52979;DHT22;63430;53.186;6.598;2023-03-11T00:50:16;1.10;99.90
52979;DHT22;63430;53.186;6.598;2023-03-11T00:52:19;1.40;99.90
52979;DHT22;63430;53.186;6.598;2023-03-11T00:54:22;1.10;99.90
52979;DHT22;63430;53.186;6.598;2023-03-11T00:56:27;1.20;99.90
52979;DHT22;63430;53.186;6.598;2023-03-11T00:58:29;1.10;99.90
52979;DHT22;63430;53.186;6.598;2023-03-11T01:00:36;1.10;99.90
52979;DHT22;63430;53.186;6.598;2023-03-11T01:02:38;1.10;99.90
52979;DHT22;63430;53.186;6.598;2023-03-11T01:04:44;1.10;99.90
52979;DHT22;63430;53.186;6.598;2023-03-11T01:06:46;1.10;99.90
52979;DHT22;63430;53.186;6.598;2023-03-11T01:08:48;1.10;99.90
52979;DHT22;63430;53.186;6.598;2023-03-11T01:10:51;2.80;99.90
52979;DHT22;63430;53.186;6.598;2023-03-11T01:12:56;1.00;99.90
52979;DHT22;63430;53.186;6.598;2023-03-11T01:14:59;1.00;99.90
52979;DHT22;63430;53.186;6.598;2023-03-11T01:17:01;1.10;99.90
52979;DHT22;63430;53.186;6.598;2023-03-11T01:19:03;1.10;99.90
52979;DHT22;63430;53.186;6.598;2023-03-11T01:21:07;1.10;99.90
52979;DHT22;63430;53.186;6.598;2023-03-11T01:23:10;1.10;99.90
52979;DHT22;63430;53.186;6.598;2023-03-11T01:25:13;1.10;99.90
52979;DHT22;63430;53.186;6.598;2023-03-11T01:27:16;1.10;99.90
52979;DHT22;63430;53.186;6.598;2023-03-11T01:29:21;1.10;99.90
52979;DHT22;63430;53.186;6.598;2023-03-11T01:31:24;1.20;99.90
52979;DHT22;63430;53.186;6.598;2023-03-11T01:33:26;1.20;99.90
52979;DHT22;63430;53.186;6.598;2023-03-11T01:35:31;1.20;99.90
52979;DHT22;63430;53.186;6.598;2023-03-11T01:37:33;1.10;99.90
52979;DHT22;63430;53.186;6.598;2023-03-11T01:39:36;1.20;99.90
52979;DHT22;63430;53.186;6.598;2023-03-11T01:41:39;1.10;99.90
52979;DHT22;63430;53.186;6.598;2023-03-11T01:43:50;1.10;99.90
52979;DHT22;63430;53.186;6.598;2023-03-11T01:46:14;1.10;99.90
52979;DHT22;63430;53.186;6.598;2023-03-11T01:48:18;1.00;99.90
52979;DHT22;63430;53.186;6.598;2023-03-11T01:50:21;1.00;99.90
52979;DHT22;63430;53.186;6.598;2023-03-11T01:52:26;1.00;99.90
52979;DHT22;63430;53.186;6.598;2023-03-11T01:54:31;1.00;99.90
52979;DHT22;63430;53.186;6.598;2023-03-11T01:56:34;0.90;99.90
52979;DHT22;63430;53.186;6.598;2023-03-11T01:58:40;-0.40;99.90
52979;DHT22;63430;53.186;6.598;2023-03-11T02:00:46;0.90;99.90
52979;DHT22;63430;53.186;6.598;2023-03-11T02:02:52;0.80;99.90
52979;DHT22;63430;53.186;6.598;2023-03-11T02:04:56;0.80;99.90
52979;DHT22;63430;53.186;6.598;2023-03-11T02:07:00;0.70;99.90
52979;DHT22;63430;53.186;6.598;2023-03-11T02:09:03;0.80;99.90
52979;DHT22;63430;53.186;6.598;2023-03-11T02:11:07;0.80;99.90
52979;DHT22;63430;53.186;6.598;2023-03-11T02:13:11;0.80;99.90
52979;DHT22;63430;53.186;6.598;2023-03-11T02:15:15;1.10;99.90
52979;DHT22;63430;53.186;6.598;2023-03-11T02:17:18;0.70;99.90
52979;DHT22;63430;53.186;6.598;2023-03-11T02:19:33;0.70;99.90
52979;DHT22;63430;53.186;6.598;2023-03-11T02:21:40;0.70;99.90
52979;DHT22;63430;53.186;6.598;2023-03-11T02:23:48;0.70;99.90
52979;DHT22;63430;53.186;6.598;2023-03-11T02:25:59;0.60;99.90
52979;DHT22;63430;53.186;6.598;2023-03-11T02:28:10;0.60;99.90
52979;DHT22;63430;53.186;6.598;2023-03-11T02:30:16;0.60;99.90
52979;DHT22;63430;53.186;6.598;2023-03-11T02:32:19;0.60;99.90
52979;DHT22;63430;53.186;6.598;2023-03-11T02:34:24;0.60;99.90
52979;DHT22;63430;53.186;6.598;2023-03-11T02:36:32;1.80;99.90
52979;DHT22;63430;53.186;6.598;2023-03-11T02:38:35;0.60;99.90
52979;DHT22;63430;53.186;6.598;2023-03-11T02:40:52;0.60;99.90
52979;DHT22;63430;53.186;6.598;2023-03-11T02:42:58;0.60;99.90
52979;DHT22;63430;53.186;6.598;2023-03-11T02:45:08;0.60;99.90
52979;DHT22;63430;53.186;6.598;2023-03-11T02:47:11;0.60;99.90
52979;DHT22;63430;53.186;6.598;2023-03-11T02:49:14;0.50;99.90
52979;DHT22;63430;53.186;6.598;2023-03-11T02:51:16;0.50;99.90
52979;DHT22;63430;53.186;6.598;2023-03-11T02:53:19;0.50;99.90
52979;DHT22;63430;53.186;6.598;2023-03-11T02:55:22;0.50;99.90
52979;DHT22;63430;53.186;6.598;2023-03-11T02:57:25;0.50;99.90
52979;DHT22;63430;53.186;6.598;2023-03-11T02:59:27;0.50;99.90
52979;DHT22;63430;53.186;6.598;2023-03-11T03:01:33;0.50;99.90
52979;DHT22;63430;53.186;6.598;2023-03-11T03:03:35;0.50;99.90
52979;DHT22;63430;53.186;6.598;2023-03-11T03:05:38;0.40;99.90
52979;DHT22;63430;53.186;6.598;2023-03-11T03:07:40;0.40;99.90
52979;DHT22;63430;53.186;6.598;2023-03-11T03:09:43;0.30;99.90
52979;DHT22;63430;53.186;6.598;2023-03-11T03:11:45;0.30;99.90
52979;DHT22;63430;53.186;6.598;2023-03-11T03:13:48;0.30;99.90
52979;DHT22;63430;53.186;6.598;2023-03-11T03:15:50;0.20;99.90
52979;DHT22;63430;53.186;6.598;2023-03-11T03:17:55;0.10;99.90
52979;DHT22;63430;53.186;6.598;2023-03-11T03:19:58;0.10;99.90
52979;DHT22;63430;53.186;6.598;2023-03-11T03:22:02;0.70;99.90
52979;DHT22;63430;53.186;6.598;2023-03-11T03:24:04;0.90;99.90
52979;DHT22;63430;53.186;6.598;2023-03-11T03:26:07;0.00;99.90
52979;DHT22;63430;53.186;6.598;2023-03-11T03:28:12;0.00;99.90
52979;DHT22;63430;53.186;6.598;2023-03-11T03:30:18;0.60;99.90
52979;DHT22;63430;53.186;6.598;2023-03-11T03:32:22;-0.10;99.90
52979;DHT22;63430;53.186;6.598;2023-03-11T03:34:28;-0.20;99.90
52979;DHT22;63430;53.186;6.598;2023-03-11T03:36:31;-1.40;99.90
52979;DHT22;63430;53.186;6.598;2023-03-11T03:38:40;-0.10;99.90
52979;DHT22;63430;53.186;6.598;2023-03-11T03:40:45;-0.30;99.90
52979;DHT22;63430;53.186;6.598;2023-03-11T03:42:51;-0.20;99.90
52979;DHT22;63430;53.186;6.598;2023-03-11T03:44:56;-1.70;99.90
52979;DHT22;63430;53.186;6.598;2023-03-11T04:32:00;-1.00;99.90
52979;DHT22;63430;53.186;6.598;2023-03-11T04:34:06;-0.90;99.90
52979;DHT22;63430;53.186;6.598;2023-03-11T04:36:12;0.90;99.90
52979;DHT22;63430;53.186;6.598;2023-03-11T04:38:16;0.10;99.90
52979;DHT22;63430;53.186;6.598;2023-03-11T04:40:22;-1.10;99.90
52979;DHT22;63430;53.186;6.598;2023-03-11T04:42:26;-0.50;99.90
52979;DHT22;63430;53.186;6.598;2023-03-11T04:44:29;-0.60;99.90
52979;DHT22;63430;53.186;6.598;2023-03-11T04:46:35;-1.00;99.90
52979;DHT22;63430;53.186;6.598;2023-03-11T04:48:43;-2.00;99.90
52979;DHT22;63430;53.186;6.598;2023-03-11T04:50:46;0.10;99.90
52979;DHT22;63430;53.186;6.598;2023-03-11T04:52:50;-1.10;99.90
52979;DHT22;63430;53.186;6.598;2023-03-11T04:54:53;0.40;99.90
52979;DHT22;63430;53.186;6.598;2023-03-11T04:56:57;-0.40;99.90
52979;DHT22;63430;53.186;6.598;2023-03-11T04:59:00;0.90;99.90
52979;DHT22;63430;53.186;6.598;2023-03-11T05:01:05;0.50;99.90
52979;DHT22;63430;53.186;6.598;2023-03-11T05:03:07;1.00;99.90
52979;DHT22;63430;53.186;6.598;2023-03-11T05:05:13;-2.00;99.90
52979;DHT22;63430;53.186;6.598;2023-03-11T05:07:17;-1.30;99.90
52979;DHT22;63430;53.186;6.598;2023-03-11T05:09:21;-1.50;99.90
52979;DHT22;63430;53.186;6.598;2023-03-11T05:11:24;-1.60;99.90
52979;DHT22;63430;53.186;6.598;2023-03-11T05:13:26;-1.50;99.90
52979;DHT22;63430;53.186;6.598;2023-03-11T05:15:29;0.30;99.90
52979;DHT22;63430;53.186;6.598;2023-03-11T05:17:35;-1.40;99.90
52979;DHT22;63430;53.186;6.598;2023-03-11T05:19:37;-0.10;99.90
52979;DHT22;63430;53.186;6.598;2023-03-11T05:21:49;-1.80;99.90
52979;DHT22;63430;53.186;6.598;2023-03-11T05:23:51;-1.60;99.90
52979;DHT22;63430;53.186;6.598;2023-03-11T05:25:54;-1.40;99.90
52979;DHT22;63430;53.186;6.598;2023-03-11T05:27:56;-1.90;99.90
52979;DHT22;63430;53.186;6.598;2023-03-11T05:29:58;-1.80;99.90
52979;DHT22;63430;53.186;6.598;2023-03-11T05:32:04;-1.70;99.90
52979;DHT22;63430;53.186;6.598;2023-03-11T05:34:08;-1.70;99.90
52979;DHT22;63430;53.186;6.598;2023-03-11T05:36:11;-1.90;99.90
52979;DHT22;63430;53.186;6.598;2023-03-11T05:38:19;-1.70;99.90
52979;DHT22;63430;53.186;6.598;2023-03-11T05:40:22;-1.60;99.90
52979;DHT22;63430;53.186;6.598;2023-03-11T05:42:25;-2.00;99.90
52979;DHT22;63430;53.186;6.598;2023-03-11T05:44:29;-1.70;99.90
52979;DHT22;63430;53.186;6.598;2023-03-11T05:46:31;-1.80;99.90
52979;DHT22;63430;53.186;6.598;2023-03-11T05:48:35;0.00;99.90
52979;DHT22;63430;53.186;6.598;2023-03-11T05:50:37;-1.80;99.90
52979;DHT22;63430;53.186;6.598;2023-03-11T05:52:41;-1.70;99.90
52979;DHT22;63430;53.186;6.598;2023-03-11T05:54:48;-1.80;99.90
52979;DHT22;63430;53.186;6.598;2023-03-11T05:58:56;-1.80;99.90
52979;DHT22;63430;53.186;6.598;2023-03-11T06:01:07;-1.80;99.90
52979;DHT22;63430;53.186;6.598;2023-03-11T06:03:09;-1.20;99.90
52979;DHT22;63430;53.186;6.598;2023-03-11T06:05:12;-1.80;99.90
52979;DHT22;63430;53.186;6.598;2023-03-11T06:07:17;-1.80;99.90
52979;DHT22;63430;53.186;6.598;2023-03-11T06:09:21;-1.80;99.90
52979;DHT22;63430;53.186;6.598;2023-03-11T06:11:29;-1.90;99.90
52979;DHT22;63430;53.186;6.598;2023-03-11T06:13:32;0.30;99.90
52979;DHT22;63430;53.186;6.598;2023-03-11T06:15:35;-1.60;99.90
52979;DHT22;63430;53.186;6.598;2023-03-11T06:17:39;-1.70;99.90
52979;DHT22;63430;53.186;6.598;2023-03-11T06:19:42;-1.60;99.90
52979;DHT22;63430;53.186;6.598;2023-03-11T06:21:45;-0.40;99.90
52979;DHT22;63430;53.186;6.598;2023-03-11T06:23:48;0.40;99.90
52979;DHT22;63430;53.186;6.598;2023-03-11T06:25:57;-1.80;99.90
52979;DHT22;63430;53.186;6.598;2023-03-11T06:28:04;-0.70;99.90
52979;DHT22;63430;53.186;6.598;2023-03-11T06:30:08;-0.60;99.90
52979;DHT22;63430;53.186;6.598;2023-03-11T06:32:18;-1.60;99.90
52979;DHT22;63430;53.186;6.598;2023-03-11T06:34:21;-1.90;99.90
52979;DHT22;63430;53.186;6.598;2023-03-11T06:36:26;-1.90;99.90
52979;DHT22;63430;53.186;6.598;2023-03-11T06:38:29;-1.90;99.90
52979;DHT22;63430;53.186;6.598;2023-03-11T06:40:32;-1.70;99.90
52979;DHT22;63430;53.186;6.598;2023-03-11T06:42:35;-0.70;99.90
52979;DHT22;63430;53.186;6.598;2023-03-11T06:44:42;-1.40;99.90
52979;DHT22;63430;53.186;6.598;2023-03-11T06:46:44;-2.30;99.90
52979;DHT22;63430;53.186;6.598;2023-03-11T06:48:49;-1.30;99.90
52979;DHT22;63430;53.186;6.598;2023-03-11T06:50:56;-0.40;99.90
52979;DHT22;63430;53.186;6.598;2023-03-11T06:53:00;-1.50;99.90
52979;DHT22;63430;53.186;6.598;2023-03-11T06:55:06;-0.40;99.90
52979;DHT22;63430;53.186;6.598;2023-03-11T06:57:10;-1.00;99.90
52979;DHT22;63430;53.186;6.598;2023-03-11T06:59:14;-1.10;99.90
52979;DHT22;63430;53.186;6.598;2023-03-11T07:01:24;0.00;99.90
52979;DHT22;63430;53.186;6.598;2023-03-11T07:03:29;-1.00;99.90
52979;DHT22;63430;53.186;6.598;2023-03-11T07:05:33;-0.40;99.90
52979;DHT22;63430;53.186;6.598;2023-03-11T07:09:48;-2.10;99.90
52979;DHT22;63430;53.186;6.598;2023-03-11T07:11:58;-0.80;99.90
52979;DHT22;63430;53.186;6.598;2023-03-11T07:14:06;-0.50;99.90
52979;DHT22;63430;53.186;6.598;2023-03-11T07:16:14;-0.80;99.90
52979;DHT22;63430;53.186;6.598;2023-03-11T07:18:20;0.50;99.90
52979;DHT22;63430;53.186;6.598;2023-03-11T07:20:23;-0.20;99.90
52979;DHT22;63430;53.186;6.598;2023-03-11T07:22:29;1.50;99.90
52979;DHT22;63430;53.186;6.598;2023-03-11T07:24:32;-1.40;99.90
52979;DHT22;63430;53.186;6.598;2023-03-11T07:26:35;-0.70;99.90
52979;DHT22;63430;53.186;6.598;2023-03-11T07:28:41;2.90;99.90
52979;DHT22;63430;53.186;6.598;2023-03-11T07:30:44;-0.50;99.90
52979;DHT22;63430;53.186;6.598;2023-03-11T07:32:47;-0.20;99.90
52979;DHT22;63430;53.186;6.598;2023-03-11T07:34:53;-0.30;99.90
52979;DHT22;63430;53.186;6.598;2023-03-11T07:36:56;-0.10;99.90
52979;DHT22;63430;53.186;6.598;2023-03-11T07:39:01;1.30;99.90
52979;DHT22;63430;53.186;6.598;2023-03-11T07:41:06;-0.20;99.90
52979;DHT22;63430;53.186;6.598;2023-03-11T07:43:09;0.10;99.90
52979;DHT22;63430;53.186;6.598;2023-03-11T07:45:12;0.00;99.90
52979;DHT22;63430;53.186;6.598;2023-03-11T07:47:15;0.20;99.90
52979;DHT22;63430;53.186;6.598;2023-03-11T07:51:25;0.30;99.90
52979;DHT22;63430;53.186;6.598;2023-03-11T07:53:28;0.30;99.90
52979;DHT22;63430;53.186;6.598;2023-03-11T07:55:31;0.20;99.90
52979;DHT22;63430;53.186;6.598;2023-03-11T07:57:36;0.40;99.90
52979;DHT22;63430;53.186;6.598;2023-03-11T07:59:39;0.80;99.90
52979;DHT22;63430;53.186;6.598;2023-03-11T08:01:44;1.80;99.90
52979;DHT22;63430;53.186;6.598;2023-03-11T08:03:50;1.10;99.90
52979;DHT22;63430;53.186;6.598;2023-03-11T08:05:58;1.80;99.90
52979;DHT22;63430;53.186;6.598;2023-03-11T08:08:04;2.70;99.90
52979;DHT22;63430;53.186;6.598;2023-03-11T08:10:07;1.00;99.90
52979;DHT22;63430;53.186;6.598;2023-03-11T08:12:10;0.90;99.90
52979;DHT22;63430;53.186;6.598;2023-03-11T08:14:13;2.70;99.90
52979;DHT22;63430;53.186;6.598;2023-03-11T08:16:17;1.00;99.90
52979;DHT22;63430;53.186;6.598;2023-03-11T08:18:20;0.90;99.90
52979;DHT22;63430;53.186;6.598;2023-03-11T08:20:23;1.10;99.90
52979;DHT22;63430;53.186;6.598;2023-03-11T08:22:25;-0.50;99.90
52979;DHT22;63430;53.186;6.598;2023-03-11T08:24:30;0.90;99.90
52979;DHT22;63430;53.186;6.598;2023-03-11T08:26:33;1.90;99.90
52979;DHT22;63430;53.186;6.598;2023-03-11T08:28:39;1.40;99.90
52979;DHT22;63430;53.186;6.598;2023-03-11T08:30:42;1.90;99.90
52979;DHT22;63430;53.186;6.598;2023-03-11T08:32:45;2.00;99.90
52979;DHT22;63430;53.186;6.598;2023-03-11T08:34:53;1.50;99.90
52979;DHT22;63430;53.186;6.598;2023-03-11T08:36:58;1.60;99.90
52979;DHT22;63430;53.186;6.598;2023-03-11T08:39:02;1.60;99.90
52979;DHT22;63430;53.186;6.598;2023-03-11T08:41:08;1.70;99.90
52979;DHT22;63430;53.186;6.598;2023-03-11T08:43:15;1.70;99.90
52979;DHT22;63430;53.186;6.598;2023-03-11T08:45:17;1.90;99.90
52979;DHT22;63430;53.186;6.598;2023-03-11T08:47:23;2.20;99.90
52979;DHT22;63430;53.186;6.598;2023-03-11T08:49:26;2.20;99.90
52979;DHT22;63430;53.186;6.598;2023-03-11T08:51:30;2.30;99.90
52979;DHT22;63430;53.186;6.598;2023-03-11T08:53:33;3.30;99.90
52979;DHT22;63430;53.186;6.598;2023-03-11T08:55:36;2.50;99.90
52979;DHT22;63430;53.186;6.598;2023-03-11T08:57:41;2.20;99.90
52979;DHT22;63430;53.186;6.598;2023-03-11T08:59:43;2.30;99.90
52979;DHT22;63430;53.186;6.598;2023-03-11T09:01:46;2.40;99.90
52979;DHT22;63430;53.186;6.598;2023-03-11T09:03:48;2.60;99.90
52979;DHT22;63430;53.186;6.598;2023-03-11T09:05:56;2.60;99.90
52979;DHT22;63430;53.186;6.598;2023-03-11T09:07:58;2.70;99.90
52979;DHT22;63430;53.186;6.598;2023-03-11T09:10:01;2.80;99.90
52979;DHT22;63430;53.186;6.598;2023-03-11T09:12:04;2.80;99.90
52979;DHT22;63430;53.186;6.598;2023-03-11T09:14:11;2.90;99.90
52979;DHT22;63430;53.186;6.598;2023-03-11T09:16:16;3.00;99.90
52979;DHT22;63430;53.186;6.598;2023-03-11T09:18:19;3.00;99.90
52979;DHT22;63430;53.186;6.598;2023-03-11T09:20:22;3.10;99.90
52979;DHT22;63430;53.186;6.598;2023-03-11T09:22:24;3.20;99.90
52979;DHT22;63430;53.186;6.598;2023-03-11T09:24:28;3.30;99.90
52979;DHT22;63430;53.186;6.598;2023-03-11T09:26:30;3.40;99.90
52979;DHT22;63430;53.186;6.598;2023-03-11T09:28:33;3.50;99.90
52979;DHT22;63430;53.186;6.598;2023-03-11T09:30:38;3.50;99.90
52979;DHT22;63430;53.186;6.598;2023-03-11T09:32:40;3.60;99.90
52979;DHT22;63430;53.186;6.598;2023-03-11T09:34:43;3.60;99.90
52979;DHT22;63430;53.186;6.598;2023-03-11T09:36:46;3.50;99.90
52979;DHT22;63430;53.186;6.598;2023-03-11T09:38:48;3.60;99.90
52979;DHT22;63430;53.186;6.598;2023-03-11T09:40:57;3.70;99.90
52979;DHT22;63430;53.186;6.598;2023-03-11T09:43:09;3.80;99.90
52979;DHT22;63430;53.186;6.598;2023-03-11T09:45:18;3.90;99.90
52979;DHT22;63430;53.186;6.598;2023-03-11T09:47:35;4.00;99.90
52979;DHT22;63430;53.186;6.598;2023-03-11T09:49:49;4.10;99.90
52979;DHT22;63430;53.186;6.598;2023-03-11T09:52:01;4.10;99.90
52979;DHT22;63430;53.186;6.598;2023-03-11T09:54:09;4.20;99.90
52979;DHT22;63430;53.186;6.598;2023-03-11T09:56:14;4.20;99.90
52979;DHT22;63430;53.186;6.598;2023-03-11T09:58:23;4.30;99.90
52979;DHT22;63430;53.186;6.598;2023-03-11T10:00:27;4.30;99.90
52979;DHT22;63430;53.186;6.598;2023-03-11T10:02:35;3.60;99.90
52979;DHT22;63430;53.186;6.598;2023-03-11T10:04:41;4.50;99.90
52979;DHT22;63430;53.186;6.598;2023-03-11T10:06:47;4.50;99.90
52979;DHT22;63430;53.186;6.598;2023-03-11T10:08:56;4.60;99.90
52979;DHT22;63430;53.186;6.598;2023-03-11T10:11:05;4.70;99.90
52979;DHT22;63430;53.186;6.598;2023-03-11T10:13:16;4.90;99.90
52979;DHT22;63430;53.186;6.598;2023-03-11T10:15:26;4.90;99.90
52979;DHT22;63430;53.186;6.598;2023-03-11T10:18:15;5.00;99.90
52979;DHT22;63430;53.186;6.598;2023-03-11T10:20:26;5.10;99.90
52979;DHT22;63430;53.186;6.598;2023-03-11T10:22:36;5.20;99.90
52979;DHT22;63430;53.186;6.598;2023-03-11T10:24:49;5.20;99.90
52979;DHT22;63430;53.186;6.598;2023-03-11T10:26:58;5.30;99.90
52979;DHT22;63430;53.186;6.598;2023-03-11T10:29:09;5.30;99.90
52979;DHT22;63430;53.186;6.598;2023-03-11T10:31:20;5.40;99.90
52979;DHT22;63430;53.186;6.598;2023-03-11T10:33:30;6.20;99.90
52979;DHT22;63430;53.186;6.598;2023-03-11T10:35:38;5.40;99.90
52979;DHT22;63430;53.186;6.598;2023-03-11T10:37:49;5.40;99.90
52979;DHT22;63430;53.186;6.598;2023-03-11T10:39:52;5.40;99.90
52979;DHT22;63430;53.186;6.598;2023-03-11T10:41:58;5.50;99.90
52979;DHT22;63430;53.186;6.598;2023-03-11T10:44:05;5.60;99.90
52979;DHT22;63430;53.186;6.598;2023-03-11T10:46:24;5.70;99.90
52979;DHT22;63430;53.186;6.598;2023-03-11T10:48:30;5.80;99.90
52979;DHT22;63430;53.186;6.598;2023-03-11T10:50:34;6.30;99.90
52979;DHT22;63430;53.186;6.598;2023-03-11T10:52:42;6.00;99.90
52979;DHT22;63430;53.186;6.598;2023-03-11T10:54:47;5.40;99.90
52979;DHT22;63430;53.186;6.598;2023-03-11T10:56:53;6.10;99.90
52979;DHT22;63430;53.186;6.598;2023-03-11T10:59:00;6.10;99.90
52979;DHT22;63430;53.186;6.598;2023-03-11T11:01:05;6.20;99.90
52979;DHT22;63430;53.186;6.598;2023-03-11T11:03:20;6.20;99.90
52979;DHT22;63430;53.186;6.598;2023-03-11T11:05:29;6.10;99.90
52979;DHT22;63430;53.186;6.598;2023-03-11T11:07:35;6.10;99.90
52979;DHT22;63430;53.186;6.598;2023-03-11T11:09:37;6.60;99.90
52979;DHT22;63430;53.186;6.598;2023-03-11T11:11:40;6.10;99.90
52979;DHT22;63430;53.186;6.598;2023-03-11T11:13:54;6.10;99.90
52979;DHT22;63430;53.186;6.598;2023-03-11T11:15:59;6.10;99.90
52979;DHT22;63430;53.186;6.598;2023-03-11T11:18:04;6.10;99.90
52979;DHT22;63430;53.186;6.598;2023-03-11T11:20:15;6.10;99.90
52979;DHT22;63430;53.186;6.598;2023-03-11T11:22:22;6.20;99.90
52979;DHT22;63430;53.186;6.598;2023-03-11T11:24:27;6.30;99.90
52979;DHT22;63430;53.186;6.598;2023-03-11T11:26:30;6.30;99.90
52979;DHT22;63430;53.186;6.598;2023-03-11T11:28:32;6.40;99.90
52979;DHT22;63430;53.186;6.598;2023-03-11T11:30:35;6.50;99.90
52979;DHT22;63430;53.186;6.598;2023-03-11T11:32:37;6.60;99.90
52979;DHT22;63430;53.186;6.598;2023-03-11T11:34:40;6.50;99.90
52979;DHT22;63430;53.186;6.598;2023-03-11T11:36:43;6.50;99.90
52979;DHT22;63430;53.186;6.598;2023-03-11T11:38:51;6.50;99.90
52979;DHT22;63430;53.186;6.598;2023-03-11T11:40:56;6.60;99.90
52979;DHT22;63430;53.186;6.598;2023-03-11T11:43:04;6.50;99.90
52979;DHT22;63430;53.186;6.598;2023-03-11T11:45:13;6.40;99.90
52979;DHT22;63430;53.186;6.598;2023-03-11T11:47:20;6.90;99.90
52979;DHT22;63430;53.186;6.598;2023-03-11T11:49:26;6.60;99.90
52979;DHT22;63430;53.186;6.598;2023-03-11T11:51:32;6.40;99.90
52979;DHT22;63430;53.186;6.598;2023-03-11T11:53:41;6.40;99.90
52979;DHT22;63430;53.186;6.598;2023-03-11T11:55:52;6.40;99.90
52979;DHT22;63430;53.186;6.598;2023-03-11T11:57:55;6.80;99.90
52979;DHT22;63430;53.186;6.598;2023-03-11T11:59:58;6.70;99.90
52979;DHT22;63430;53.186;6.598;2023-03-11T12:02:11;6.80;99.90
52979;DHT22;63430;53.186;6.598;2023-03-11T12:04:31;7.10;99.90
52979;DHT22;63430;53.186;6.598;2023-03-11T12:06:38;6.80;99.90
52979;DHT22;63430;53.186;6.598;2023-03-11T12:08:48;6.90;99.90
52979;DHT22;63430;53.186;6.598;2023-03-11T12:10:57;6.90;99.90
52979;DHT22;63430;53.186;6.598;2023-03-11T12:15:38;6.90;99.90
52979;DHT22;63430;53.186;6.598;2023-03-11T12:17:45;7.00;99.90
52979;DHT22;63430;53.186;6.598;2023-03-11T12:19:51;7.10;99.90
52979;DHT22;63430;53.186;6.598;2023-03-11T12:22:09;7.10;98.60
52979;DHT22;63430;53.186;6.598;2023-03-11T12:24:42;6.00;99.10
52979;DHT22;63430;53.186;6.598;2023-03-11T12:26:58;7.00;99.80
52979;DHT22;63430;53.186;6.598;2023-03-11T12:29:05;7.00;96.40
52979;DHT22;63430;53.186;6.598;2023-03-11T12:31:10;6.90;95.80
52979;DHT22;63430;53.186;6.598;2023-03-11T12:33:17;6.90;94.70
52979;DHT22;63430;53.186;6.598;2023-03-11T12:35:23;6.80;92.70
52979;DHT22;63430;53.186;6.598;2023-03-11T12:37:26;6.70;95.90
52979;DHT22;63430;53.186;6.598;2023-03-11T12:39:30;6.70;97.00
52979;DHT22;63430;53.186;6.598;2023-03-11T12:41:35;6.70;97.30
52979;DHT22;63430;53.186;6.598;2023-03-11T12:44:03;6.70;97.90
52979;DHT22;63430;53.186;6.598;2023-03-11T12:46:06;6.70;95.40
52979;DHT22;63430;53.186;6.598;2023-03-11T12:48:32;6.70;95.10
52979;DHT22;63430;53.186;6.598;2023-03-11T12:50:38;6.60;95.30
52979;DHT22;63430;53.186;6.598;2023-03-11T12:52:58;6.70;97.70
52979;DHT22;63430;53.186;6.598;2023-03-11T12:57:49;6.80;97.40
52979;DHT22;63430;53.186;6.598;2023-03-11T13:00:12;6.80;98.60
52979;DHT22;63430;53.186;6.598;2023-03-11T13:04:55;6.90;93.80
52979;DHT22;63430;53.186;6.598;2023-03-11T13:09:29;7.00;97.30
52979;DHT22;63430;53.186;6.598;2023-03-11T13:11:41;7.10;97.90
52979;DHT22;63430;53.186;6.598;2023-03-11T13:13:44;7.30;97.10
52979;DHT22;63430;53.186;6.598;2023-03-11T13:15:49;7.30;92.40
52979;DHT22;63430;53.186;6.598;2023-03-11T13:17:59;7.80;92.60
52979;DHT22;63430;53.186;6.598;2023-03-11T13:20:02;7.20;94.90
52979;DHT22;63430;53.186;6.598;2023-03-11T13:22:09;7.20;92.20
52979;DHT22;63430;53.186;6.598;2023-03-11T13:24:39;7.30;93.20
52979;DHT22;63430;53.186;6.598;2023-03-11T13:26:51;7.20;92.70
52979;DHT22;63430;53.186;6.598;2023-03-11T13:29:38;7.40;94.70
52979;DHT22;63430;53.186;6.598;2023-03-11T13:32:06;7.30;94.10
52979;DHT22;63430;53.186;6.598;2023-03-11T13:34:15;7.30;92.70
52979;DHT22;63430;53.186;6.598;2023-03-11T13:36:38;7.20;92.80
52979;DHT22;63430;53.186;6.598;2023-03-11T13:39:11;7.30;93.70
52979;DHT22;63430;53.186;6.598;2023-03-11T13:41:21;7.30;95.40
52979;DHT22;63430;53.186;6.598;2023-03-11T13:43:25;7.90;93.50
52979;DHT22;63430;53.186;6.598;2023-03-11T13:45:29;7.20;93.70
52979;DHT22;63430;53.186;6.598;2023-03-11T13:47:34;7.20;91.30
52979;DHT22;63430;53.186;6.598;2023-03-11T13:49:41;7.40;92.30
52979;DHT22;63430;53.186;6.598;2023-03-11T13:51:46;7.40;93.20
52979;DHT22;63430;53.186;6.598;2023-03-11T13:53:53;7.50;93.20
52979;DHT22;63430;53.186;6.598;2023-03-11T13:55:57;7.50;91.00
52979;DHT22;63430;53.186;6.598;2023-03-11T13:57:59;7.40;88.30
52979;DHT22;63430;53.186;6.598;2023-03-11T14:00:12;7.20;87.80
52979;DHT22;63430;53.186;6.598;2023-03-11T14:02:18;7.10;90.20
52979;DHT22;63430;53.186;6.598;2023-03-11T14:04:26;7.00;90.70
52979;DHT22;63430;53.186;6.598;2023-03-11T14:06:29;7.00;92.30
52979;DHT22;63430;53.186;6.598;2023-03-11T14:08:33;6.80;91.80
52979;DHT22;63430;53.186;6.598;2023-03-11T14:10:38;6.70;91.40
52979;DHT22;63430;53.186;6.598;2023-03-11T14:12:41;6.70;92.20
52979;DHT22;63430;53.186;6.598;2023-03-11T14:14:50;6.70;93.10
52979;DHT22;63430;53.186;6.598;2023-03-11T14:16:55;6.70;93.90
52979;DHT22;63430;53.186;6.598;2023-03-11T14:19:02;6.80;94.40
52979;DHT22;63430;53.186;6.598;2023-03-11T14:21:12;6.80;94.90
52979;DHT22;63430;53.186;6.598;2023-03-11T14:23:17;6.80;95.00
52979;DHT22;63430;53.186;6.598;2023-03-11T14:25:23;7.00;94.20
52979;DHT22;63430;53.186;6.598;2023-03-11T14:27:27;6.80;92.20